sensor_id;sensor_type;location;lat;lon;timestamp;temperature;humidity
78184;DHT22;67442;44.570;18.610;2023-05-10T00:02:19;22.80;58.70
78184;DHT22;67442;44.570;18.610;2023-05-10T00:04:46;22.70;58.70
78184;DHT22;67442;44.570;18.610;2023-05-10T00:07:13;22.70;58.70
78184;DHT22;67442;44.570;18.610;2023-05-10T00:09:46;22.70;58.70
78184;DHT22;67442;44.570;18.610;2023-05-10T00:12:17;22.70;58.80
78184;DHT22;67442;44.570;18.610;2023-05-10T00:14:48;22.80;58.80
78184;DHT22;67442;44.570;18.610;2023-05-10T00:17:15;22.70;58.80
78184;DHT22;67442;44.570;18.610;2023-05-10T00:19:42;22.70;58.80
78184;DHT22;67442;44.570;18.610;2023-05-10T00:22:09;22.70;58.90
78184;DHT22;67442;44.570;18.610;2023-05-10T00:24:40;22.80;58.90
78184;DHT22;67442;44.570;18.610;2023-05-10T00:27:08;22.80;58.90
78184;DHT22;67442;44.570;18.610;2023-05-10T00:29:34;22.80;58.90
78184;DHT22;67442;44.570;18.610;2023-05-10T00:32:02;22.80;58.90
78184;DHT22;67442;44.570;18.610;2023-05-10T00:34:29;22.80;58.90
78184;DHT22;67442;44.570;18.610;2023-05-10T00:36:56;22.80;59.00
78184;DHT22;67442;44.570;18.610;2023-05-10T00:39:24;22.80;59.10
78184;DHT22;67442;44.570;18.610;2023-05-10T00:41:53;22.80;59.00
78184;DHT22;67442;44.570;18.610;2023-05-10T00:44:20;22.70;59.00
78184;DHT22;67442;44.570;18.610;2023-05-10T00:46:48;22.70;59.10
78184;DHT22;67442;44.570;18.610;2023-05-10T00:49:20;22.70;59.10
78184;DHT22;67442;44.570;18.610;2023-05-10T00:51:51;22.80;59.20
78184;DHT22;67442;44.570;18.610;2023-05-10T00:54:22;22.70;59.70
78184;DHT22;67442;44.570;18.610;2023-05-10T00:56:49;22.80;59.10
78184;DHT22;67442;44.570;18.610;2023-05-10T00:59:16;22.80;59.20
78184;DHT22;67442;44.570;18.610;2023-05-10T01:01:44;22.80;59.10
78184;DHT22;67442;44.570;18.610;2023-05-10T01:04:15;22.70;59.10
78184;DHT22;67442;44.570;18.610;2023-05-10T01:06:42;22.70;59.10
78184;DHT22;67442;44.570;18.610;2023-05-10T01:09:09;22.70;59.10
78184;DHT22;67442;44.570;18.610;2023-05-10T01:11:41;22.70;59.10
78184;DHT22;67442;44.570;18.610;2023-05-10T01:14:08;22.70;59.00
78184;DHT22;67442;44.570;18.610;2023-05-10T01:16:40;22.70;59.00
78184;DHT22;67442;44.570;18.610;2023-05-10T01:19:17;22.70;59.10
78184;DHT22;67442;44.570;18.610;2023-05-10T01:38:41;22.70;59.20
78184;DHT22;67442;44.570;18.610;2023-05-10T01:41:24;22.70;59.30
78184;DHT22;67442;44.570;18.610;2023-05-10T01:44:10;22.70;59.20
78184;DHT22;67442;44.570;18.610;2023-05-10T01:46:40;22.70;59.30
78184;DHT22;67442;44.570;18.610;2023-05-10T01:49:29;22.70;59.30
78184;DHT22;67442;44.570;18.610;2023-05-10T01:52:06;22.70;59.40
78184;DHT22;67442;44.570;18.610;2023-05-10T01:54:59;22.70;59.40
78184;DHT22;67442;44.570;18.610;2023-05-10T01:57:31;22.70;59.40
78184;DHT22;67442;44.570;18.610;2023-05-10T02:00:01;22.70;59.40
78184;DHT22;67442;44.570;18.610;2023-05-10T02:02:32;22.70;59.50
78184;DHT22;67442;44.570;18.610;2023-05-10T02:05:00;22.70;59.50
78184;DHT22;67442;44.570;18.610;2023-05-10T02:07:33;22.70;59.50
78184;DHT22;67442;44.570;18.610;2023-05-10T02:10:01;22.70;59.40
78184;DHT22;67442;44.570;18.610;2023-05-10T02:12:29;22.70;59.50
78184;DHT22;67442;44.570;18.610;2023-05-10T02:14:59;22.70;59.50
78184;DHT22;67442;44.570;18.610;2023-05-10T02:17:30;22.70;59.50
78184;DHT22;67442;44.570;18.610;2023-05-10T02:19:59;22.70;59.50
78184;DHT22;67442;44.570;18.610;2023-05-10T02:22:28;22.70;59.50
78184;DHT22;67442;44.570;18.610;2023-05-10T02:24:59;22.70;59.50
78184;DHT22;67442;44.570;18.610;2023-05-10T02:27:27;22.70;59.60
78184;DHT22;67442;44.570;18.610;2023-05-10T02:29:55;22.70;59.60
78184;DHT22;67442;44.570;18.610;2023-05-10T02:32:29;22.70;59.60
78184;DHT22;67442;44.570;18.610;2023-05-10T02:34:57;22.70;59.60
78184;DHT22;67442;44.570;18.610;2023-05-10T02:37:25;22.70;59.60
78184;DHT22;67442;44.570;18.610;2023-05-10T02:39:54;22.70;59.70
78184;DHT22;67442;44.570;18.610;2023-05-10T02:42:31;22.70;59.70
78184;DHT22;67442;44.570;18.610;2023-05-10T02:45:06;22.70;59.70
78184;DHT22;67442;44.570;18.610;2023-05-10T02:47:35;22.70;59.70
78184;DHT22;67442;44.570;18.610;2023-05-10T02:50:03;22.70;59.70
78184;DHT22;67442;44.570;18.610;2023-05-10T02:52:50;22.70;59.90
78184;DHT22;67442;44.570;18.610;2023-05-10T02:55:36;22.70;59.80
78184;DHT22;67442;44.570;18.610;2023-05-10T02:58:04;22.70;59.70
78184;DHT22;67442;44.570;18.610;2023-05-10T03:00:31;22.70;59.70
78184;DHT22;67442;44.570;18.610;2023-05-10T03:03:02;22.70;59.70
78184;DHT22;67442;44.570;18.610;2023-05-10T03:05:30;22.70;59.70
78184;DHT22;67442;44.570;18.610;2023-05-10T03:07:57;22.70;59.70
78184;DHT22;67442;44.570;18.610;2023-05-10T03:10:28;22.70;59.70
78184;DHT22;67442;44.570;18.610;2023-05-10T03:13:10;22.70;59.70
78184;DHT22;67442;44.570;18.610;2023-05-10T03:15:59;22.70;59.70
78184;DHT22;67442;44.570;18.610;2023-05-10T03:18:54;22.70;59.70
78184;DHT22;67442;44.570;18.610;2023-05-10T03:21:29;22.70;59.70
78184;DHT22;67442;44.570;18.610;2023-05-10T03:24:16;22.70;59.70
78184;DHT22;67442;44.570;18.610;2023-05-10T03:26:44;22.70;59.70
78184;DHT22;67442;44.570;18.610;2023-05-10T03:29:12;22.70;59.70
78184;DHT22;67442;44.570;18.610;2023-05-10T03:31:40;22.70;59.70
78184;DHT22;67442;44.570;18.610;2023-05-10T03:34:07;22.70;59.70
78184;DHT22;67442;44.570;18.610;2023-05-10T03:36:34;22.70;59.70
78184;DHT22;67442;44.570;18.610;2023-05-10T03:39:02;22.70;59.60
78184;DHT22;67442;44.570;18.610;2023-05-10T03:41:29;22.70;59.60
78184;DHT22;67442;44.570;18.610;2023-05-10T03:43:57;22.70;59.60
78184;DHT22;67442;44.570;18.610;2023-05-10T03:46:24;22.70;59.60
78184;DHT22;67442;44.570;18.610;2023-05-10T03:48:51;22.70;59.60
78184;DHT22;67442;44.570;18.610;2023-05-10T03:51:19;22.70;59.60
78184;DHT22;67442;44.570;18.610;2023-05-10T03:53:51;22.70;59.60
78184;DHT22;67442;44.570;18.610;2023-05-10T03:56:21;22.70;59.60
78184;DHT22;67442;44.570;18.610;2023-05-10T03:58:49;22.70;59.70
78184;DHT22;67442;44.570;18.610;2023-05-10T04:01:16;22.70;59.70
78184;DHT22;67442;44.570;18.610;2023-05-10T04:03:43;22.70;59.70
78184;DHT22;67442;44.570;18.610;2023-05-10T04:06:11;22.70;59.70
78184;DHT22;67442;44.570;18.610;2023-05-10T04:08:38;22.70;59.70
78184;DHT22;67442;44.570;18.610;2023-05-10T04:11:06;22.60;59.60
78184;DHT22;67442;44.570;18.610;2023-05-10T04:13:34;22.70;59.80
78184;DHT22;67442;44.570;18.610;2023-05-10T04:16:01;22.60;59.70
78184;DHT22;67442;44.570;18.610;2023-05-10T04:18:29;22.60;59.80
78184;DHT22;67442;44.570;18.610;2023-05-10T04:20:56;22.70;59.80
78184;DHT22;67442;44.570;18.610;2023-05-10T04:23:23;22.60;59.70
78184;DHT22;67442;44.570;18.610;2023-05-10T04:25:50;22.60;59.70
78184;DHT22;67442;44.570;18.610;2023-05-10T04:28:17;22.60;59.70
78184;DHT22;67442;44.570;18.610;2023-05-10T04:30:44;22.60;59.70
78184;DHT22;67442;44.570;18.610;2023-05-10T04:33:12;22.60;59.80
78184;DHT22;67442;44.570;18.610;2023-05-10T04:35:39;22.60;59.80
78184;DHT22;67442;44.570;18.610;2023-05-10T04:38:06;22.60;59.70
78184;DHT22;67442;44.570;18.610;2023-05-10T04:40:33;22.60;59.70
78184;DHT22;67442;44.570;18.610;2023-05-10T04:43:01;22.60;59.80
78184;DHT22;67442;44.570;18.610;2023-05-10T04:45:28;22.60;59.80
78184;DHT22;67442;44.570;18.610;2023-05-10T04:47:55;22.60;59.80
78184;DHT22;67442;44.570;18.610;2023-05-10T04:50:26;22.60;59.80
78184;DHT22;67442;44.570;18.610;2023-05-10T04:52:57;22.70;60.00
78184;DHT22;67442;44.570;18.610;2023-05-10T04:55:24;22.60;60.10
78184;DHT22;67442;44.570;18.610;2023-05-10T04:57:55;22.60;60.20
78184;DHT22;67442;44.570;18.610;2023-05-10T05:00:24;22.60;60.20
78184;DHT22;67442;44.570;18.610;2023-05-10T05:02:51;22.60;60.20
78184;DHT22;67442;44.570;18.610;2023-05-10T05:05:19;22.60;60.10
78184;DHT22;67442;44.570;18.610;2023-05-10T05:07:46;22.60;60.10
78184;DHT22;67442;44.570;18.610;2023-05-10T05:10:14;22.60;60.10
78184;DHT22;67442;44.570;18.610;2023-05-10T05:12:41;22.60;60.00
78184;DHT22;67442;44.570;18.610;2023-05-10T05:15:12;22.60;60.00
78184;DHT22;67442;44.570;18.610;2023-05-10T05:17:39;22.60;59.90
78184;DHT22;67442;44.570;18.610;2023-05-10T05:20:08;22.60;59.90
78184;DHT22;67442;44.570;18.610;2023-05-10T05:22:36;22.60;59.80
78184;DHT22;67442;44.570;18.610;2023-05-10T05:25:03;22.70;59.80
78184;DHT22;67442;44.570;18.610;2023-05-10T05:27:31;22.60;59.70
78184;DHT22;67442;44.570;18.610;2023-05-10T05:29:58;22.60;59.70
78184;DHT22;67442;44.570;18.610;2023-05-10T05:32:25;22.60;59.70
78184;DHT22;67442;44.570;18.610;2023-05-10T05:34:56;22.60;59.70
78184;DHT22;67442;44.570;18.610;2023-05-10T05:37:23;22.60;59.60
78184;DHT22;67442;44.570;18.610;2023-05-10T05:39:54;22.60;59.60
78184;DHT22;67442;44.570;18.610;2023-05-10T05:42:21;22.60;59.60
78184;DHT22;67442;44.570;18.610;2023-05-10T05:44:52;22.60;59.60
78184;DHT22;67442;44.570;18.610;2023-05-10T05:47:19;22.60;59.60
78184;DHT22;67442;44.570;18.610;2023-05-10T05:49:47;22.60;59.60
78184;DHT22;67442;44.570;18.610;2023-05-10T05:52:18;22.60;59.50
78184;DHT22;67442;44.570;18.610;2023-05-10T05:54:45;22.60;59.60
78184;DHT22;67442;44.570;18.610;2023-05-10T05:57:13;22.60;59.50
78184;DHT22;67442;44.570;18.610;2023-05-10T05:59:39;22.60;59.50
78184;DHT22;67442;44.570;18.610;2023-05-10T06:02:10;22.60;59.50
78184;DHT22;67442;44.570;18.610;2023-05-10T06:04:37;22.60;59.40
78184;DHT22;67442;44.570;18.610;2023-05-10T06:07:04;22.60;59.40
78184;DHT22;67442;44.570;18.610;2023-05-10T06:09:35;22.60;59.40
78184;DHT22;67442;44.570;18.610;2023-05-10T06:12:02;22.60;59.40
78184;DHT22;67442;44.570;18.610;2023-05-10T06:14:30;22.60;59.40
78184;DHT22;67442;44.570;18.610;2023-05-10T06:16:57;22.60;59.30
78184;DHT22;67442;44.570;18.610;2023-05-10T06:19:25;22.60;59.30
78184;DHT22;67442;44.570;18.610;2023-05-10T06:21:53;22.60;59.30
78184;DHT22;67442;44.570;18.610;2023-05-10T06:24:21;22.60;59.30
78184;DHT22;67442;44.570;18.610;2023-05-10T06:26:48;22.60;59.20
78184;DHT22;67442;44.570;18.610;2023-05-10T06:29:16;22.60;59.20
78184;DHT22;67442;44.570;18.610;2023-05-10T06:31:43;22.60;59.20
78184;DHT22;67442;44.570;18.610;2023-05-10T06:34:11;22.60;59.20
78184;DHT22;67442;44.570;18.610;2023-05-10T06:36:38;22.60;59.20
78184;DHT22;67442;44.570;18.610;2023-05-10T06:39:05;22.60;59.10
78184;DHT22;67442;44.570;18.610;2023-05-10T06:41:36;22.60;59.10
78184;DHT22;67442;44.570;18.610;2023-05-10T06:44:04;22.60;59.10
78184;DHT22;67442;44.570;18.610;2023-05-10T06:46:35;22.60;59.10
78184;DHT22;67442;44.570;18.610;2023-05-10T06:49:02;22.60;59.10
78184;DHT22;67442;44.570;18.610;2023-05-10T06:51:29;22.60;59.10
78184;DHT22;67442;44.570;18.610;2023-05-10T06:54:01;22.60;59.00
78184;DHT22;67442;44.570;18.610;2023-05-10T06:56:29;22.60;59.00
78184;DHT22;67442;44.570;18.610;2023-05-10T06:59:00;22.60;59.00
78184;DHT22;67442;44.570;18.610;2023-05-10T07:01:32;22.60;59.00
78184;DHT22;67442;44.570;18.610;2023-05-10T07:04:03;22.60;59.00
78184;DHT22;67442;44.570;18.610;2023-05-10T07:06:30;22.60;58.90
78184;DHT22;67442;44.570;18.610;2023-05-10T07:08:58;22.60;58.90
78184;DHT22;67442;44.570;18.610;2023-05-10T07:11:29;22.60;58.90
78184;DHT22;67442;44.570;18.610;2023-05-10T07:13:56;22.60;58.90
78184;DHT22;67442;44.570;18.610;2023-05-10T07:16:28;22.60;58.90
78184;DHT22;67442;44.570;18.610;2023-05-10T07:18:55;22.60;58.90
78184;DHT22;67442;44.570;18.610;2023-05-10T07:21:26;22.60;58.80
78184;DHT22;67442;44.570;18.610;2023-05-10T07:23:54;22.60;58.80
78184;DHT22;67442;44.570;18.610;2023-05-10T07:26:26;22.60;58.80
78184;DHT22;67442;44.570;18.610;2023-05-10T07:28:53;22.60;58.80
78184;DHT22;67442;44.570;18.610;2023-05-10T07:31:20;22.60;58.80
78184;DHT22;67442;44.570;18.610;2023-05-10T07:33:48;22.60;58.80
78184;DHT22;67442;44.570;18.610;2023-05-10T07:36:15;22.60;58.80
78184;DHT22;67442;44.570;18.610;2023-05-10T07:38:42;22.60;58.80
78184;DHT22;67442;44.570;18.610;2023-05-10T07:41:10;22.60;58.80
78184;DHT22;67442;44.570;18.610;2023-05-10T07:43:41;22.60;58.80
78184;DHT22;67442;44.570;18.610;2023-05-10T07:46:08;22.60;58.80
78184;DHT22;67442;44.570;18.610;2023-05-10T07:48:37;22.60;58.80
78184;DHT22;67442;44.570;18.610;2023-05-10T07:51:08;22.60;58.80
78184;DHT22;67442;44.570;18.610;2023-05-10T07:53:36;22.60;58.80
78184;DHT22;67442;44.570;18.610;2023-05-10T07:56:27;22.60;58.80
78184;DHT22;67442;44.570;18.610;2023-05-10T07:58:56;22.60;58.80
78184;DHT22;67442;44.570;18.610;2023-05-10T08:01:23;22.60;58.80
78184;DHT22;67442;44.570;18.610;2023-05-10T08:03:54;22.60;58.70
78184;DHT22;67442;44.570;18.610;2023-05-10T08:06:26;22.60;58.80
78184;DHT22;67442;44.570;18.610;2023-05-10T08:08:54;22.60;58.10
78184;DHT22;67442;44.570;18.610;2023-05-10T08:11:25;22.70;58.80
78184;DHT22;67442;44.570;18.610;2023-05-10T08:13:56;22.60;58.70
78184;DHT22;67442;44.570;18.610;2023-05-10T08:16:24;22.60;58.80
78184;DHT22;67442;44.570;18.610;2023-05-10T08:18:51;22.60;58.70
78184;DHT22;67442;44.570;18.610;2023-05-10T08:21:18;22.60;58.70
78184;DHT22;67442;44.570;18.610;2023-05-10T08:23:45;22.70;58.80
78184;DHT22;67442;44.570;18.610;2023-05-10T08:26:17;22.60;58.70
78184;DHT22;67442;44.570;18.610;2023-05-10T08:28:45;22.70;58.80
78184;DHT22;67442;44.570;18.610;2023-05-10T08:31:16;22.70;58.80
78184;DHT22;67442;44.570;18.610;2023-05-10T08:33:42;22.60;58.70
78184;DHT22;67442;44.570;18.610;2023-05-10T08:36:13;22.70;58.70
78184;DHT22;67442;44.570;18.610;2023-05-10T08:38:46;22.70;58.70
78184;DHT22;67442;44.570;18.610;2023-05-10T08:41:14;22.70;58.70
78184;DHT22;67442;44.570;18.610;2023-05-10T08:43:42;22.70;58.80
78184;DHT22;67442;44.570;18.610;2023-05-10T08:46:16;22.70;58.70
78184;DHT22;67442;44.570;18.610;2023-05-10T08:48:45;22.70;58.70
78184;DHT22;67442;44.570;18.610;2023-05-10T08:51:22;22.70;58.70
78184;DHT22;67442;44.570;18.610;2023-05-10T08:53:50;22.70;58.70
78184;DHT22;67442;44.570;18.610;2023-05-10T08:56:18;22.70;58.70
78184;DHT22;67442;44.570;18.610;2023-05-10T08:58:45;22.70;58.70
78184;DHT22;67442;44.570;18.610;2023-05-10T09:01:12;22.70;58.70
78184;DHT22;67442;44.570;18.610;2023-05-10T09:03:40;22.70;58.70
78184;DHT22;67442;44.570;18.610;2023-05-10T09:06:07;22.70;58.70
78184;DHT22;67442;44.570;18.610;2023-05-10T09:08:38;22.70;58.70
78184;DHT22;67442;44.570;18.610;2023-05-10T09:11:05;22.70;58.70
78184;DHT22;67442;44.570;18.610;2023-05-10T09:13:33;22.70;58.70
78184;DHT22;67442;44.570;18.610;2023-05-10T09:16:00;22.70;58.70
78184;DHT22;67442;44.570;18.610;2023-05-10T09:18:31;22.70;58.70
78184;DHT22;67442;44.570;18.610;2023-05-10T09:20:58;22.70;58.70
78184;DHT22;67442;44.570;18.610;2023-05-10T09:23:26;22.70;58.70
78184;DHT22;67442;44.570;18.610;2023-05-10T09:26:07;22.60;58.60
78184;DHT22;67442;44.570;18.610;2023-05-10T09:28:54;22.70;58.70
78184;DHT22;67442;44.570;18.610;2023-05-10T09:31:22;22.70;58.70
78184;DHT22;67442;44.570;18.610;2023-05-10T09:33:51;22.70;58.70
78184;DHT22;67442;44.570;18.610;2023-05-10T09:36:18;22.70;58.70
78184;DHT22;67442;44.570;18.610;2023-05-10T09:38:47;22.70;58.70
78184;DHT22;67442;44.570;18.610;2023-05-10T09:41:22;22.70;58.70
78184;DHT22;67442;44.570;18.610;2023-05-10T09:43:50;22.70;58.70
78184;DHT22;67442;44.570;18.610;2023-05-10T09:46:25;22.70;58.70
78184;DHT22;67442;44.570;18.610;2023-05-10T09:48:53;22.70;58.70
78184;DHT22;67442;44.570;18.610;2023-05-10T09:51:20;22.70;58.70
78184;DHT22;67442;44.570;18.610;2023-05-10T09:53:47;22.70;58.70
78184;DHT22;67442;44.570;18.610;2023-05-10T09:56:35;22.70;58.70
78184;DHT22;67442;44.570;18.610;2023-05-10T09:59:11;22.70;58.70
78184;DHT22;67442;44.570;18.610;2023-05-10T10:01:38;22.70;58.70
78184;DHT22;67442;44.570;18.610;2023-05-10T10:04:05;22.70;58.70
78184;DHT22;67442;44.570;18.610;2023-05-10T10:06:39;22.70;58.70
78184;DHT22;67442;44.570;18.610;2023-05-10T10:09:07;22.70;58.70
78184;DHT22;67442;44.570;18.610;2023-05-10T10:11:36;22.70;58.70
78184;DHT22;67442;44.570;18.610;2023-05-10T10:14:04;22.70;58.70
78184;DHT22;67442;44.570;18.610;2023-05-10T10:16:32;22.70;58.70
78184;DHT22;67442;44.570;18.610;2023-05-10T10:18:59;22.70;58.70
78184;DHT22;67442;44.570;18.610;2023-05-10T10:21:26;22.70;58.70
78184;DHT22;67442;44.570;18.610;2023-05-10T10:23:53;22.70;58.70
78184;DHT22;67442;44.570;18.610;2023-05-10T10:26:21;22.70;58.70
78184;DHT22;67442;44.570;18.610;2023-05-10T10:34:47;22.70;58.70
78184;DHT22;67442;44.570;18.610;2023-05-10T10:37:15;22.70;58.70
78184;DHT22;67442;44.570;18.610;2023-05-10T10:39:41;22.70;58.70
78184;DHT22;67442;44.570;18.610;2023-05-10T10:42:08;22.70;58.70
78184;DHT22;67442;44.570;18.610;2023-05-10T10:44:37;22.70;58.70
78184;DHT22;67442;44.570;18.610;2023-05-10T10:52:38;22.70;58.70
78184;DHT22;67442;44.570;18.610;2023-05-10T10:57:47;22.70;58.70
78184;DHT22;67442;44.570;18.610;2023-05-10T11:03:08;22.70;58.60
78184;DHT22;67442;44.570;18.610;2023-05-10T11:10:35;22.70;58.70
78184;DHT22;67442;44.570;18.610;2023-05-10T11:13:05;22.70;58.60
78184;DHT22;67442;44.570;18.610;2023-05-10T11:18:00;22.70;58.70
78184;DHT22;67442;44.570;18.610;2023-05-10T11:20:42;22.70;58.70
78184;DHT22;67442;44.570;18.610;2023-05-10T11:23:14;22.70;58.60
78184;DHT22;67442;44.570;18.610;2023-05-10T11:25:45;22.70;58.60
78184;DHT22;67442;44.570;18.610;2023-05-10T11:28:19;22.70;58.60
78184;DHT22;67442;44.570;18.610;2023-05-10T11:30:50;22.70;58.60
78184;DHT22;67442;44.570;18.610;2023-05-10T11:33:18;22.70;58.60
78184;DHT22;67442;44.570;18.610;2023-05-10T11:35:49;22.70;58.70
78184;DHT22;67442;44.570;18.610;2023-05-10T11:38:16;22.70;58.60
78184;DHT22;67442;44.570;18.610;2023-05-10T11:40:51;22.70;58.60
78184;DHT22;67442;44.570;18.610;2023-05-10T11:43:18;22.70;58.70
78184;DHT22;67442;44.570;18.610;2023-05-10T11:45:45;22.70;58.70
78184;DHT22;67442;44.570;18.610;2023-05-10T11:48:13;22.70;58.60
78184;DHT22;67442;44.570;18.610;2023-05-10T11:50:46;22.70;58.60
78184;DHT22;67442;44.570;18.610;2023-05-10T11:53:13;22.70;58.70
78184;DHT22;67442;44.570;18.610;2023-05-10T11:55:40;22.70;58.60
78184;DHT22;67442;44.570;18.610;2023-05-10T11:58:11;22.70;58.70
78184;DHT22;67442;44.570;18.610;2023-05-10T12:00:38;22.70;58.70
78184;DHT22;67442;44.570;18.610;2023-05-10T12:03:09;22.70;58.70
78184;DHT22;67442;44.570;18.610;2023-05-10T12:05:36;22.70;58.70
78184;DHT22;67442;44.570;18.610;2023-05-10T12:08:20;22.70;58.70
78184;DHT22;67442;44.570;18.610;2023-05-10T12:10:48;22.70;58.70
78184;DHT22;67442;44.570;18.610;2023-05-10T12:13:14;22.70;58.70
78184;DHT22;67442;44.570;18.610;2023-05-10T12:15:42;22.70;59.20
78184;DHT22;67442;44.570;18.610;2023-05-10T12:18:11;22.70;58.70
78184;DHT22;67442;44.570;18.610;2023-05-10T12:20:38;22.70;58.70
78184;DHT22;67442;44.570;18.610;2023-05-10T12:23:05;22.70;58.70
78184;DHT22;67442;44.570;18.610;2023-05-10T12:25:34;22.70;58.70
78184;DHT22;67442;44.570;18.610;2023-05-10T12:28:04;22.70;58.70
78184;DHT22;67442;44.570;18.610;2023-05-10T12:30:32;22.70;58.70
78184;DHT22;67442;44.570;18.610;2023-05-10T12:33:13;22.70;58.70
78184;DHT22;67442;44.570;18.610;2023-05-10T12:35:53;22.70;58.70
78184;DHT22;67442;44.570;18.610;2023-05-10T12:38:35;22.70;58.60
78184;DHT22;67442;44.570;18.610;2023-05-10T12:41:11;22.70;58.70
78184;DHT22;67442;44.570;18.610;2023-05-10T12:43:39;22.70;58.60
78184;DHT22;67442;44.570;18.610;2023-05-10T12:46:10;22.70;58.70
78184;DHT22;67442;44.570;18.610;2023-05-10T12:48:42;22.70;58.70
78184;DHT22;67442;44.570;18.610;2023-05-10T12:51:09;22.70;58.70
78184;DHT22;67442;44.570;18.610;2023-05-10T12:53:38;22.70;58.70
78184;DHT22;67442;44.570;18.610;2023-05-10T12:56:09;22.70;58.70
78184;DHT22;67442;44.570;18.610;2023-05-10T12:58:36;22.70;58.70
78184;DHT22;67442;44.570;18.610;2023-05-10T13:01:05;22.70;58.70
78184;DHT22;67442;44.570;18.610;2023-05-10T13:03:32;22.70;58.70
78184;DHT22;67442;44.570;18.610;2023-05-10T13:05:59;22.70;58.70
78184;DHT22;67442;44.570;18.610;2023-05-10T13:08:27;22.70;58.70
78184;DHT22;67442;44.570;18.610;2023-05-10T13:10:59;22.70;58.70
78184;DHT22;67442;44.570;18.610;2023-05-10T13:13:26;22.70;58.70
78184;DHT22;67442;44.570;18.610;2023-05-10T13:15:54;22.70;58.70
78184;DHT22;67442;44.570;18.610;2023-05-10T13:18:20;22.70;58.70
78184;DHT22;67442;44.570;18.610;2023-05-10T13:20:47;22.70;58.70
78184;DHT22;67442;44.570;18.610;2023-05-10T13:23:16;22.70;58.70
78184;DHT22;67442;44.570;18.610;2023-05-10T13:25:43;22.70;58.70
78184;DHT22;67442;44.570;18.610;2023-05-10T13:28:11;22.70;58.70
78184;DHT22;67442;44.570;18.610;2023-05-10T13:30:38;22.70;58.80
78184;DHT22;67442;44.570;18.610;2023-05-10T13:33:11;22.70;58.70
78184;DHT22;67442;44.570;18.610;2023-05-10T13:35:39;22.70;58.80
78184;DHT22;67442;44.570;18.610;2023-05-10T13:38:06;22.70;58.70
78184;DHT22;67442;44.570;18.610;2023-05-10T13:40:34;22.70;59.40
78184;DHT22;67442;44.570;18.610;2023-05-10T13:43:02;22.70;58.70
78184;DHT22;67442;44.570;18.610;2023-05-10T13:45:29;22.70;58.80
78184;DHT22;67442;44.570;18.610;2023-05-10T13:47:57;22.70;58.70
78184;DHT22;67442;44.570;18.610;2023-05-10T13:50:24;22.70;58.70
78184;DHT22;67442;44.570;18.610;2023-05-10T13:52:52;22.70;58.70
78184;DHT22;67442;44.570;18.610;2023-05-10T13:55:19;22.70;58.70
78184;DHT22;67442;44.570;18.610;2023-05-10T13:57:46;22.70;58.70
78184;DHT22;67442;44.570;18.610;2023-05-10T14:00:18;22.70;58.70
78184;DHT22;67442;44.570;18.610;2023-05-10T14:02:46;22.70;58.70
78184;DHT22;67442;44.570;18.610;2023-05-10T14:05:12;22.70;58.70
78184;DHT22;67442;44.570;18.610;2023-05-10T14:07:43;22.70;58.70
78184;DHT22;67442;44.570;18.610;2023-05-10T14:10:10;22.70;58.70
78184;DHT22;67442;44.570;18.610;2023-05-10T14:12:38;22.70;58.70
78184;DHT22;67442;44.570;18.610;2023-05-10T14:15:06;22.70;58.70
78184;DHT22;67442;44.570;18.610;2023-05-10T14:17:36;22.70;58.70
78184;DHT22;67442;44.570;18.610;2023-05-10T14:20:04;22.70;58.70
78184;DHT22;67442;44.570;18.610;2023-05-10T14:22:33;22.70;58.70
78184;DHT22;67442;44.570;18.610;2023-05-10T14:25:00;22.70;58.70
78184;DHT22;67442;44.570;18.610;2023-05-10T14:27:28;22.70;58.70
78184;DHT22;67442;44.570;18.610;2023-05-10T14:29:56;22.70;58.70
78184;DHT22;67442;44.570;18.610;2023-05-10T14:32:24;22.70;58.80
78184;DHT22;67442;44.570;18.610;2023-05-10T14:34:56;22.70;58.70
78184;DHT22;67442;44.570;18.610;2023-05-10T14:37:27;22.70;58.70
78184;DHT22;67442;44.570;18.610;2023-05-10T14:39:54;22.70;58.70
78184;DHT22;67442;44.570;18.610;2023-05-10T14:42:25;22.70;58.80
78184;DHT22;67442;44.570;18.610;2023-05-10T14:44:52;22.70;58.70
78184;DHT22;67442;44.570;18.610;2023-05-10T14:47:19;22.70;58.70
78184;DHT22;67442;44.570;18.610;2023-05-10T14:49:47;22.70;58.70
78184;DHT22;67442;44.570;18.610;2023-05-10T14:52:17;22.70;58.70
78184;DHT22;67442;44.570;18.610;2023-05-10T14:54:52;22.70;58.70
78184;DHT22;67442;44.570;18.610;2023-05-10T14:57:20;22.70;58.70
78184;DHT22;67442;44.570;18.610;2023-05-10T14:59:47;22.70;58.70
78184;DHT22;67442;44.570;18.610;2023-05-10T15:02:15;22.70;58.70
78184;DHT22;67442;44.570;18.610;2023-05-10T15:04:42;22.70;58.80
78184;DHT22;67442;44.570;18.610;2023-05-10T15:07:10;22.70;58.80
78184;DHT22;67442;44.570;18.610;2023-05-10T15:09:40;22.70;58.80
78184;DHT22;67442;44.570;18.610;2023-05-10T15:12:08;22.70;58.80
78184;DHT22;67442;44.570;18.610;2023-05-10T15:14:38;22.70;58.80
78184;DHT22;67442;44.570;18.610;2023-05-10T15:17:06;22.70;58.80
78184;DHT22;67442;44.570;18.610;2023-05-10T15:19:34;22.70;58.80
78184;DHT22;67442;44.570;18.610;2023-05-10T15:22:05;22.70;58.80
78184;DHT22;67442;44.570;18.610;2023-05-10T15:24:31;22.70;58.80
78184;DHT22;67442;44.570;18.610;2023-05-10T15:26:58;22.70;58.90
78184;DHT22;67442;44.570;18.610;2023-05-10T15:29:26;22.70;59.00
78184;DHT22;67442;44.570;18.610;2023-05-10T15:31:53;22.70;59.00
78184;DHT22;67442;44.570;18.610;2023-05-10T15:34:21;22.70;59.10
78184;DHT22;67442;44.570;18.610;2023-05-10T15:36:48;22.70;59.10
78184;DHT22;67442;44.570;18.610;2023-05-10T15:39:15;22.70;59.10
78184;DHT22;67442;44.570;18.610;2023-05-10T15:41:42;22.70;59.10
78184;DHT22;67442;44.570;18.610;2023-05-10T15:44:09;22.70;59.10
78184;DHT22;67442;44.570;18.610;2023-05-10T15:46:37;22.70;59.10
78184;DHT22;67442;44.570;18.610;2023-05-10T15:49:04;22.70;59.20
78184;DHT22;67442;44.570;18.610;2023-05-10T15:51:35;22.70;59.20
78184;DHT22;67442;44.570;18.610;2023-05-10T15:54:02;22.70;59.10
78184;DHT22;67442;44.570;18.610;2023-05-10T15:56:29;22.70;59.20
78184;DHT22;67442;44.570;18.610;2023-05-10T15:59:01;22.70;59.20
78184;DHT22;67442;44.570;18.610;2023-05-10T16:01:29;22.70;59.10
78184;DHT22;67442;44.570;18.610;2023-05-10T16:03:57;22.70;59.20
78184;DHT22;67442;44.570;18.610;2023-05-10T16:06:28;22.70;59.20
78184;DHT22;67442;44.570;18.610;2023-05-10T16:08:56;22.70;59.20
78184;DHT22;67442;44.570;18.610;2023-05-10T16:11:23;22.70;59.20